sensor_id;sensor_type;location;lat;lon;timestamp;P1;durP1;ratioP1;P2;durP2;ratioP2
56728;SDS011;42612;52.232;7.560;2024-03-25T00:01:04;13.90;;;3.13;;
56728;SDS011;42612;52.232;7.560;2024-03-25T00:03:29;13.18;;;2.13;;
56728;SDS011;42612;52.232;7.560;2024-03-25T00:05:55;7.80;;;2.05;;
56728;SDS011;42612;52.232;7.560;2024-03-25T00:08:22;9.57;;;1.90;;
56728;SDS011;42612;52.232;7.560;2024-03-25T00:10:48;9.05;;;2.08;;
56728;SDS011;42612;52.232;7.560;2024-03-25T00:13:13;12.02;;;2.83;;
56728;SDS011;42612;52.232;7.560;2024-03-25T00:15:39;6.82;;;2.30;;
56728;SDS011;42612;52.232;7.560;2024-03-25T00:18:06;11.70;;;2.30;;
56728;SDS011;42612;52.232;7.560;2024-03-25T00:20:32;6.00;;;2.20;;
56728;SDS011;42612;52.232;7.560;2024-03-25T00:22:58;10.60;;;1.90;;
56728;SDS011;42612;52.232;7.560;2024-03-25T00:25:25;9.93;;;2.10;;
56728;SDS011;42612;52.232;7.560;2024-03-25T00:27:50;7.60;;;1.85;;
56728;SDS011;42612;52.232;7.560;2024-03-25T00:30:16;6.50;;;2.20;;
56728;SDS011;42612;52.232;7.560;2024-03-25T00:32:42;9.07;;;2.22;;
56728;SDS011;42612;52.232;7.560;2024-03-25T00:35:07;9.30;;;2.35;;
56728;SDS011;42612;52.232;7.560;2024-03-25T00:37:33;6.43;;;1.95;;
56728;SDS011;42612;52.232;7.560;2024-03-25T00:39:59;5.40;;;1.73;;
56728;SDS011;42612;52.232;7.560;2024-03-25T00:42:25;18.80;;;3.22;;
56728;SDS011;42612;52.232;7.560;2024-03-25T00:44:51;7.30;;;2.42;;
56728;SDS011;42612;52.232;7.560;2024-03-25T00:47:16;7.45;;;1.60;;
56728;SDS011;42612;52.232;7.560;2024-03-25T00:49:42;4.40;;;1.90;;
56728;SDS011;42612;52.232;7.560;2024-03-25T00:52:08;5.10;;;1.95;;
56728;SDS011;42612;52.232;7.560;2024-03-25T00:54:33;6.05;;;2.30;;
56728;SDS011;42612;52.232;7.560;2024-03-25T00:56:59;9.50;;;1.80;;
56728;SDS011;42612;52.232;7.560;2024-03-25T00:59:25;5.78;;;1.95;;
56728;SDS011;42612;52.232;7.560;2024-03-25T01:01:51;8.80;;;1.90;;
56728;SDS011;42612;52.232;7.560;2024-03-25T01:04:16;6.25;;;1.60;;
56728;SDS011;42612;52.232;7.560;2024-03-25T01:06:42;5.25;;;1.40;;
56728;SDS011;42612;52.232;7.560;2024-03-25T01:09:08;8.38;;;2.05;;
56728;SDS011;42612;52.232;7.560;2024-03-25T01:11:35;5.75;;;2.38;;
56728;SDS011;42612;52.232;7.560;2024-03-25T01:14:00;6.45;;;2.17;;
56728;SDS011;42612;52.232;7.560;2024-03-25T01:16:26;10.10;;;2.75;;
56728;SDS011;42612;52.232;7.560;2024-03-25T01:18:52;6.05;;;2.13;;
56728;SDS011;42612;52.232;7.560;2024-03-25T01:21:18;9.05;;;1.80;;
56728;SDS011;42612;52.232;7.560;2024-03-25T01:23:44;6.43;;;1.77;;
56728;SDS011;42612;52.232;7.560;2024-03-25T01:26:10;9.52;;;2.05;;
56728;SDS011;42612;52.232;7.560;2024-03-25T01:28:35;11.55;;;2.28;;
56728;SDS011;42612;52.232;7.560;2024-03-25T01:31:01;8.25;;;2.40;;
56728;SDS011;42612;52.232;7.560;2024-03-25T01:33:27;8.95;;;2.10;;
56728;SDS011;42612;52.232;7.560;2024-03-25T01:35:53;7.75;;;2.30;;
56728;SDS011;42612;52.232;7.560;2024-03-25T01:38:20;5.20;;;2.15;;
56728;SDS011;42612;52.232;7.560;2024-03-25T01:40:46;6.18;;;2.08;;
56728;SDS011;42612;52.232;7.560;2024-03-25T01:43:12;10.40;;;2.53;;
56728;SDS011;42612;52.232;7.560;2024-03-25T01:45:38;6.75;;;1.85;;
56728;SDS011;42612;52.232;7.560;2024-03-25T01:48:04;7.97;;;1.92;;
56728;SDS011;42612;52.232;7.560;2024-03-25T01:50:35;10.07;;;2.75;;
56728;SDS011;42612;52.232;7.560;2024-03-25T01:53:12;6.55;;;2.42;;
56728;SDS011;42612;52.232;7.560;2024-03-25T01:55:40;11.40;;;3.15;;
56728;SDS011;42612;52.232;7.560;2024-03-25T01:58:07;8.02;;;2.58;;
56728;SDS011;42612;52.232;7.560;2024-03-25T02:00:33;7.80;;;2.70;;
56728;SDS011;42612;52.232;7.560;2024-03-25T02:02:59;9.27;;;2.00;;
56728;SDS011;42612;52.232;7.560;2024-03-25T02:05:25;11.25;;;1.90;;
56728;SDS011;42612;52.232;7.560;2024-03-25T02:07:50;9.98;;;2.83;;
56728;SDS011;42612;52.232;7.560;2024-03-25T02:10:17;12.70;;;2.70;;
56728;SDS011;42612;52.232;7.560;2024-03-25T02:12:43;9.57;;;2.90;;
56728;SDS011;42612;52.232;7.560;2024-03-25T02:17:40;7.35;;;2.30;;
56728;SDS011;42612;52.232;7.560;2024-03-25T02:20:07;13.88;;;2.67;;
56728;SDS011;42612;52.232;7.560;2024-03-25T02:22:34;9.80;;;2.33;;
56728;SDS011;42612;52.232;7.560;2024-03-25T02:25:05;10.50;;;2.45;;
56728;SDS011;42612;52.232;7.560;2024-03-25T02:27:36;15.48;;;3.10;;
56728;SDS011;42612;52.232;7.560;2024-03-25T02:32:34;8.75;;;1.83;;
56728;SDS011;42612;52.232;7.560;2024-03-25T02:35:01;9.25;;;3.05;;
56728;SDS011;42612;52.232;7.560;2024-03-25T02:37:30;13.15;;;1.88;;
56728;SDS011;42612;52.232;7.560;2024-03-25T02:39:57;7.28;;;1.63;;
56728;SDS011;42612;52.232;7.560;2024-03-25T02:42:25;12.02;;;2.25;;
56728;SDS011;42612;52.232;7.560;2024-03-25T02:44:52;5.38;;;1.80;;
56728;SDS011;42612;52.232;7.560;2024-03-25T02:47:19;8.48;;;1.83;;
56728;SDS011;42612;52.232;7.560;2024-03-25T02:49:45;10.07;;;2.17;;
56728;SDS011;42612;52.232;7.560;2024-03-25T02:52:11;7.70;;;1.90;;
56728;SDS011;42612;52.232;7.560;2024-03-25T02:54:37;5.75;;;2.35;;
56728;SDS011;42612;52.232;7.560;2024-03-25T02:57:03;7.82;;;2.35;;
56728;SDS011;42612;52.232;7.560;2024-03-25T02:59:29;11.38;;;2.55;;
56728;SDS011;42612;52.232;7.560;2024-03-25T03:01:54;10.38;;;1.90;;
56728;SDS011;42612;52.232;7.560;2024-03-25T03:04:20;5.03;;;2.28;;
56728;SDS011;42612;52.232;7.560;2024-03-25T03:06:46;6.93;;;1.85;;
56728;SDS011;42612;52.232;7.560;2024-03-25T03:09:11;9.50;;;2.10;;
56728;SDS011;42612;52.232;7.560;2024-03-25T03:11:37;14.90;;;2.53;;
56728;SDS011;42612;52.232;7.560;2024-03-25T03:14:03;7.72;;;2.60;;
56728;SDS011;42612;52.232;7.560;2024-03-25T03:16:29;6.70;;;1.70;;
56728;SDS011;42612;52.232;7.560;2024-03-25T03:18:55;8.18;;;1.98;;
56728;SDS011;42612;52.232;7.560;2024-03-25T03:21:21;11.27;;;2.05;;
56728;SDS011;42612;52.232;7.560;2024-03-25T03:23:46;8.90;;;2.45;;
56728;SDS011;42612;52.232;7.560;2024-03-25T03:26:12;8.60;;;2.42;;
56728;SDS011;42612;52.232;7.560;2024-03-25T03:28:39;10.77;;;2.25;;
56728;SDS011;42612;52.232;7.560;2024-03-25T03:31:05;8.52;;;2.28;;
56728;SDS011;42612;52.232;7.560;2024-03-25T03:33:32;4.78;;;1.90;;
56728;SDS011;42612;52.232;7.560;2024-03-25T03:35:57;7.88;;;2.00;;
56728;SDS011;42612;52.232;7.560;2024-03-25T03:38:23;9.70;;;2.30;;
56728;SDS011;42612;52.232;7.560;2024-03-25T03:40:59;9.13;;;2.50;;
56728;SDS011;42612;52.232;7.560;2024-03-25T03:43:31;5.70;;;1.60;;
56728;SDS011;42612;52.232;7.560;2024-03-25T03:45:57;6.40;;;2.63;;
56728;SDS011;42612;52.232;7.560;2024-03-25T03:48:23;9.95;;;2.45;;
56728;SDS011;42612;52.232;7.560;2024-03-25T03:50:48;9.82;;;2.20;;
56728;SDS011;42612;52.232;7.560;2024-03-25T03:53:14;6.47;;;1.63;;
56728;SDS011;42612;52.232;7.560;2024-03-25T03:55:40;10.93;;;1.73;;
56728;SDS011;42612;52.232;7.560;2024-03-25T03:58:06;6.72;;;2.28;;
56728;SDS011;42612;52.232;7.560;2024-03-25T04:00:34;10.15;;;1.98;;
56728;SDS011;42612;52.232;7.560;2024-03-25T04:03:03;6.53;;;1.67;;
56728;SDS011;42612;52.232;7.560;2024-03-25T04:05:29;5.85;;;1.40;;
56728;SDS011;42612;52.232;7.560;2024-03-25T04:07:55;6.22;;;1.83;;
56728;SDS011;42612;52.232;7.560;2024-03-25T04:10:22;9.65;;;2.25;;
56728;SDS011;42612;52.232;7.560;2024-03-25T04:12:48;9.82;;;2.13;;
56728;SDS011;42612;52.232;7.560;2024-03-25T04:15:14;7.32;;;1.77;;
56728;SDS011;42612;52.232;7.560;2024-03-25T04:17:45;12.07;;;1.92;;
56728;SDS011;42612;52.232;7.560;2024-03-25T04:20:12;7.38;;;1.80;;
56728;SDS011;42612;52.232;7.560;2024-03-25T04:22:44;7.78;;;1.95;;
56728;SDS011;42612;52.232;7.560;2024-03-25T04:25:11;7.78;;;1.67;;
56728;SDS011;42612;52.232;7.560;2024-03-25T04:27:39;10.35;;;2.47;;
56728;SDS011;42612;52.232;7.560;2024-03-25T04:30:08;9.60;;;1.73;;
56728;SDS011;42612;52.232;7.560;2024-03-25T04:32:36;6.68;;;2.40;;
56728;SDS011;42612;52.232;7.560;2024-03-25T04:35:03;7.85;;;2.08;;
56728;SDS011;42612;52.232;7.560;2024-03-25T04:37:31;6.53;;;2.00;;
56728;SDS011;42612;52.232;7.560;2024-03-25T04:39:58;12.63;;;2.47;;
56728;SDS011;42612;52.232;7.560;2024-03-25T04:42:24;8.23;;;2.15;;
56728;SDS011;42612;52.232;7.560;2024-03-25T04:44:50;8.65;;;2.25;;
56728;SDS011;42612;52.232;7.560;2024-03-25T04:47:16;8.50;;;2.30;;
56728;SDS011;42612;52.232;7.560;2024-03-25T04:49:43;9.77;;;1.80;;
56728;SDS011;42612;52.232;7.560;2024-03-25T04:52:09;10.85;;;2.13;;
56728;SDS011;42612;52.232;7.560;2024-03-25T04:54:38;9.27;;;2.22;;
56728;SDS011;42612;52.232;7.560;2024-03-25T04:57:04;5.70;;;2.30;;
56728;SDS011;42612;52.232;7.560;2024-03-25T04:59:31;8.93;;;2.20;;
56728;SDS011;42612;52.232;7.560;2024-03-25T05:01:58;8.65;;;2.45;;
56728;SDS011;42612;52.232;7.560;2024-03-25T05:04:24;6.95;;;2.05;;
56728;SDS011;42612;52.232;7.560;2024-03-25T05:06:50;9.15;;;2.20;;
56728;SDS011;42612;52.232;7.560;2024-03-25T05:09:16;9.98;;;2.47;;
56728;SDS011;42612;52.232;7.560;2024-03-25T05:11:42;7.85;;;2.10;;
56728;SDS011;42612;52.232;7.560;2024-03-25T05:14:08;12.10;;;2.28;;
56728;SDS011;42612;52.232;7.560;2024-03-25T05:16:34;12.65;;;2.70;;
56728;SDS011;42612;52.232;7.560;2024-03-25T05:19:00;9.95;;;2.45;;
56728;SDS011;42612;52.232;7.560;2024-03-25T05:21:25;10.52;;;2.25;;
56728;SDS011;42612;52.232;7.560;2024-03-25T05:23:51;7.63;;;2.50;;
56728;SDS011;42612;52.232;7.560;2024-03-25T05:26:17;8.95;;;2.53;;
56728;SDS011;42612;52.232;7.560;2024-03-25T05:28:42;10.40;;;2.38;;
56728;SDS011;42612;52.232;7.560;2024-03-25T05:31:08;11.18;;;2.00;;
56728;SDS011;42612;52.232;7.560;2024-03-25T05:33:34;9.70;;;3.10;;
56728;SDS011;42612;52.232;7.560;2024-03-25T05:36:01;8.15;;;2.65;;
56728;SDS011;42612;52.232;7.560;2024-03-25T05:38:27;6.70;;;2.70;;
56728;SDS011;42612;52.232;7.560;2024-03-25T05:40:54;9.82;;;2.53;;
56728;SDS011;42612;52.232;7.560;2024-03-25T05:43:20;9.23;;;2.75;;
56728;SDS011;42612;52.232;7.560;2024-03-25T05:45:56;9.07;;;4.85;;
56728;SDS011;42612;52.232;7.560;2024-03-25T05:48:23;11.57;;;3.22;;
56728;SDS011;42612;52.232;7.560;2024-03-25T05:53:34;13.75;;;3.08;;
56728;SDS011;42612;52.232;7.560;2024-03-25T05:56:00;6.22;;;2.83;;
56728;SDS011;42612;52.232;7.560;2024-03-25T05:58:27;13.02;;;3.65;;
56728;SDS011;42612;52.232;7.560;2024-03-25T06:00:53;11.70;;;2.70;;
56728;SDS011;42612;52.232;7.560;2024-03-25T06:03:19;8.20;;;2.53;;
56728;SDS011;42612;52.232;7.560;2024-03-25T06:05:45;8.77;;;2.70;;
56728;SDS011;42612;52.232;7.560;2024-03-25T06:08:11;13.27;;;2.85;;
56728;SDS011;42612;52.232;7.560;2024-03-25T06:13:18;6.07;;;2.28;;
56728;SDS011;42612;52.232;7.560;2024-03-25T06:15:45;8.13;;;2.30;;
56728;SDS011;42612;52.232;7.560;2024-03-25T06:18:11;8.30;;;2.47;;
56728;SDS011;42612;52.232;7.560;2024-03-25T06:20:37;8.57;;;2.85;;
56728;SDS011;42612;52.232;7.560;2024-03-25T06:23:03;12.50;;;2.67;;
56728;SDS011;42612;52.232;7.560;2024-03-25T06:25:29;11.57;;;2.60;;
56728;SDS011;42612;52.232;7.560;2024-03-25T06:27:55;7.47;;;2.47;;
56728;SDS011;42612;52.232;7.560;2024-03-25T06:30:21;14.73;;;3.05;;
56728;SDS011;42612;52.232;7.560;2024-03-25T06:33:05;10.35;;;2.30;;
56728;SDS011;42612;52.232;7.560;2024-03-25T06:35:50;8.10;;;1.90;;
56728;SDS011;42612;52.232;7.560;2024-03-25T06:38:17;9.43;;;2.50;;
56728;SDS011;42612;52.232;7.560;2024-03-25T06:40:43;9.80;;;2.70;;
56728;SDS011;42612;52.232;7.560;2024-03-25T06:43:10;13.23;;;2.63;;
56728;SDS011;42612;52.232;7.560;2024-03-25T06:45:36;9.07;;;2.03;;
56728;SDS011;42612;52.232;7.560;2024-03-25T06:48:02;7.32;;;2.05;;
56728;SDS011;42612;52.232;7.560;2024-03-25T06:50:28;6.95;;;1.88;;
56728;SDS011;42612;52.232;7.560;2024-03-25T06:52:54;6.22;;;1.85;;
56728;SDS011;42612;52.232;7.560;2024-03-25T06:55:20;7.07;;;2.33;;
56728;SDS011;42612;52.232;7.560;2024-03-25T06:57:47;7.75;;;2.40;;
56728;SDS011;42612;52.232;7.560;2024-03-25T07:00:14;7.70;;;2.10;;
56728;SDS011;42612;52.232;7.560;2024-03-25T07:02:40;8.43;;;2.20;;
56728;SDS011;42612;52.232;7.560;2024-03-25T07:05:06;8.52;;;2.25;;
56728;SDS011;42612;52.232;7.560;2024-03-25T07:07:32;7.50;;;2.22;;
56728;SDS011;42612;52.232;7.560;2024-03-25T07:10:01;7.75;;;2.40;;
56728;SDS011;42612;52.232;7.560;2024-03-25T07:12:27;5.03;;;1.67;;
56728;SDS011;42612;52.232;7.560;2024-03-25T07:14:54;9.93;;;2.10;;
56728;SDS011;42612;52.232;7.560;2024-03-25T07:17:20;9.02;;;1.90;;
56728;SDS011;42612;52.232;7.560;2024-03-25T07:19:46;5.65;;;1.77;;
56728;SDS011;42612;52.232;7.560;2024-03-25T07:22:13;5.57;;;2.03;;
56728;SDS011;42612;52.232;7.560;2024-03-25T07:24:39;10.18;;;2.63;;
56728;SDS011;42612;52.232;7.560;2024-03-25T07:27:05;11.27;;;2.03;;
56728;SDS011;42612;52.232;7.560;2024-03-25T07:29:32;10.07;;;2.45;;
56728;SDS011;42612;52.232;7.560;2024-03-25T07:31:58;13.25;;;3.15;;
56728;SDS011;42612;52.232;7.560;2024-03-25T07:34:24;6.60;;;2.10;;
56728;SDS011;42612;52.232;7.560;2024-03-25T07:36:49;9.75;;;1.92;;
56728;SDS011;42612;52.232;7.560;2024-03-25T07:39:15;12.90;;;3.22;;
56728;SDS011;42612;52.232;7.560;2024-03-25T07:41:41;9.95;;;3.10;;
56728;SDS011;42612;52.232;7.560;2024-03-25T07:44:07;8.65;;;2.17;;
56728;SDS011;42612;52.232;7.560;2024-03-25T07:46:32;18.70;;;2.80;;
56728;SDS011;42612;52.232;7.560;2024-03-25T07:48:58;8.13;;;2.13;;
56728;SDS011;42612;52.232;7.560;2024-03-25T07:51:24;7.88;;;2.40;;
56728;SDS011;42612;52.232;7.560;2024-03-25T07:53:50;8.52;;;2.50;;
56728;SDS011;42612;52.232;7.560;2024-03-25T07:56:15;7.47;;;2.47;;
56728;SDS011;42612;52.232;7.560;2024-03-25T07:58:41;10.85;;;2.55;;
56728;SDS011;42612;52.232;7.560;2024-03-25T08:01:07;8.20;;;2.25;;
56728;SDS011;42612;52.232;7.560;2024-03-25T08:03:33;10.25;;;2.55;;
56728;SDS011;42612;52.232;7.560;2024-03-25T08:05:59;12.65;;;3.15;;
56728;SDS011;42612;52.232;7.560;2024-03-25T08:08:25;9.80;;;2.80;;
56728;SDS011;42612;52.232;7.560;2024-03-25T08:10:51;9.77;;;2.63;;
56728;SDS011;42612;52.232;7.560;2024-03-25T08:13:21;14.40;;;3.17;;
56728;SDS011;42612;52.232;7.560;2024-03-25T08:15:46;7.80;;;2.88;;
56728;SDS011;42612;52.232;7.560;2024-03-25T08:18:12;11.13;;;2.83;;
56728;SDS011;42612;52.232;7.560;2024-03-25T08:20:38;11.13;;;2.80;;
56728;SDS011;42612;52.232;7.560;2024-03-25T08:23:04;10.88;;;3.40;;
56728;SDS011;42612;52.232;7.560;2024-03-25T08:25:30;7.30;;;2.70;;
56728;SDS011;42612;52.232;7.560;2024-03-25T08:27:56;11.88;;;3.17;;
56728;SDS011;42612;52.232;7.560;2024-03-25T08:30:23;16.30;;;3.53;;
56728;SDS011;42612;52.232;7.560;2024-03-25T08:32:49;11.85;;;2.47;;
56728;SDS011;42612;52.232;7.560;2024-03-25T08:35:16;9.98;;;2.97;;
56728;SDS011;42612;52.232;7.560;2024-03-25T08:37:42;8.70;;;2.33;;
56728;SDS011;42612;52.232;7.560;2024-03-25T08:40:08;8.65;;;2.75;;
56728;SDS011;42612;52.232;7.560;2024-03-25T08:42:34;14.50;;;3.33;;
56728;SDS011;42612;52.232;7.560;2024-03-25T08:45:00;10.07;;;3.15;;
56728;SDS011;42612;52.232;7.560;2024-03-25T08:47:26;8.52;;;3.20;;
56728;SDS011;42612;52.232;7.560;2024-03-25T08:49:52;12.63;;;3.08;;
56728;SDS011;42612;52.232;7.560;2024-03-25T08:52:17;7.38;;;2.70;;
56728;SDS011;42612;52.232;7.560;2024-03-25T08:54:43;16.25;;;3.30;;
56728;SDS011;42612;52.232;7.560;2024-03-25T08:57:09;10.02;;;3.10;;
56728;SDS011;42612;52.232;7.560;2024-03-25T08:59:35;9.25;;;2.80;;
56728;SDS011;42612;52.232;7.560;2024-03-25T09:02:01;10.40;;;2.60;;
56728;SDS011;42612;52.232;7.560;2024-03-25T09:04:26;11.30;;;2.65;;
56728;SDS011;42612;52.232;7.560;2024-03-25T09:06:52;16.23;;;3.80;;
56728;SDS011;42612;52.232;7.560;2024-03-25T09:09:18;21.00;;;3.88;;
56728;SDS011;42612;52.232;7.560;2024-03-25T09:12:02;9.07;;;2.72;;
56728;SDS011;42612;52.232;7.560;2024-03-25T09:14:28;10.30;;;3.35;;
56728;SDS011;42612;52.232;7.560;2024-03-25T09:16:54;7.32;;;2.30;;
56728;SDS011;42612;52.232;7.560;2024-03-25T09:19:19;14.77;;;4.07;;
56728;SDS011;42612;52.232;7.560;2024-03-25T09:21:45;10.88;;;3.72;;
56728;SDS011;42612;52.232;7.560;2024-03-25T09:24:11;7.72;;;2.25;;
56728;SDS011;42612;52.232;7.560;2024-03-25T09:26:36;8.63;;;2.25;;
56728;SDS011;42612;52.232;7.560;2024-03-25T09:29:02;12.38;;;3.28;;
56728;SDS011;42612;52.232;7.560;2024-03-25T09:31:28;8.32;;;2.13;;
56728;SDS011;42612;52.232;7.560;2024-03-25T09:33:54;8.90;;;2.25;;
56728;SDS011;42612;52.232;7.560;2024-03-25T09:36:19;7.85;;;2.45;;
56728;SDS011;42612;52.232;7.560;2024-03-25T09:38:45;14.05;;;2.80;;
56728;SDS011;42612;52.232;7.560;2024-03-25T09:41:11;7.45;;;2.50;;
56728;SDS011;42612;52.232;7.560;2024-03-25T09:43:42;12.60;;;2.67;;
56728;SDS011;42612;52.232;7.560;2024-03-25T09:46:12;6.13;;;2.60;;
56728;SDS011;42612;52.232;7.560;2024-03-25T09:48:38;7.05;;;2.33;;
56728;SDS011;42612;52.232;7.560;2024-03-25T09:53:32;11.75;;;2.40;;
56728;SDS011;42612;52.232;7.560;2024-03-25T09:55:58;8.07;;;1.98;;
56728;SDS011;42612;52.232;7.560;2024-03-25T09:58:27;6.72;;;1.98;;
56728;SDS011;42612;52.232;7.560;2024-03-25T10:00:53;8.38;;;2.50;;
56728;SDS011;42612;52.232;7.560;2024-03-25T10:03:20;9.52;;;2.05;;
56728;SDS011;42612;52.232;7.560;2024-03-25T10:05:46;12.60;;;2.70;;
56728;SDS011;42612;52.232;7.560;2024-03-25T10:08:12;4.95;;;2.00;;
56728;SDS011;42612;52.232;7.560;2024-03-25T10:10:38;8.43;;;1.77;;
56728;SDS011;42612;52.232;7.560;2024-03-25T10:13:04;8.07;;;2.08;;
56728;SDS011;42612;52.232;7.560;2024-03-25T10:15:30;5.35;;;2.17;;
56728;SDS011;42612;52.232;7.560;2024-03-25T10:17:57;2.13;;;1.35;;
56728;SDS011;42612;52.232;7.560;2024-03-25T10:20:22;11.73;;;1.73;;
56728;SDS011;42612;52.232;7.560;2024-03-25T10:22:49;7.13;;;1.75;;
56728;SDS011;42612;52.232;7.560;2024-03-25T10:25:27;11.23;;;2.50;;
56728;SDS011;42612;52.232;7.560;2024-03-25T10:27:58;5.45;;;1.80;;
56728;SDS011;42612;52.232;7.560;2024-03-25T10:30:26;5.30;;;1.88;;
56728;SDS011;42612;52.232;7.560;2024-03-25T10:33:02;7.93;;;1.98;;
56728;SDS011;42612;52.232;7.560;2024-03-25T10:35:30;4.53;;;1.73;;
56728;SDS011;42612;52.232;7.560;2024-03-25T10:37:59;7.70;;;1.48;;
56728;SDS011;42612;52.232;7.560;2024-03-25T10:40:29;3.65;;;1.08;;
56728;SDS011;42612;52.232;7.560;2024-03-25T10:42:59;4.90;;;1.20;;
56728;SDS011;42612;52.232;7.560;2024-03-25T10:45:28;6.72;;;1.45;;
56728;SDS011;42612;52.232;7.560;2024-03-25T10:47:58;5.32;;;1.63;;
56728;SDS011;42612;52.232;7.560;2024-03-25T10:50:29;4.68;;;1.58;;
56728;SDS011;42612;52.232;7.560;2024-03-25T10:52:57;5.60;;;1.40;;
56728;SDS011;42612;52.232;7.560;2024-03-25T10:55:24;1.77;;;1.15;;
56728;SDS011;42612;52.232;7.560;2024-03-25T10:57:51;4.13;;;1.58;;
56728;SDS011;42612;52.232;7.560;2024-03-25T11:00:19;8.82;;;1.73;;
56728;SDS011;42612;52.232;7.560;2024-03-25T11:02:48;5.25;;;1.58;;
56728;SDS011;42612;52.232;7.560;2024-03-25T11:05:15;7.03;;;1.67;;
56728;SDS011;42612;52.232;7.560;2024-03-25T11:07:42;7.85;;;1.77;;
56728;SDS011;42612;52.232;7.560;2024-03-25T11:10:08;4.15;;;1.65;;
56728;SDS011;42612;52.232;7.560;2024-03-25T11:12:35;6.75;;;1.48;;
56728;SDS011;42612;52.232;7.560;2024-03-25T11:17:30;3.60;;;1.42;;
56728;SDS011;42612;52.232;7.560;2024-03-25T11:20:09;5.43;;;1.52;;
56728;SDS011;42612;52.232;7.560;2024-03-25T11:22:50;12.18;;;1.85;;
56728;SDS011;42612;52.232;7.560;2024-03-25T11:25:17;1.15;;;1.10;;
56728;SDS011;42612;52.232;7.560;2024-03-25T11:27:46;2.33;;;1.38;;
56728;SDS011;42612;52.232;7.560;2024-03-25T11:30:13;9.05;;;1.63;;
56728;SDS011;42612;52.232;7.560;2024-03-25T11:32:43;9.43;;;1.48;;
56728;SDS011;42612;52.232;7.560;2024-03-25T11:35:09;4.88;;;1.30;;
56728;SDS011;42612;52.232;7.560;2024-03-25T11:37:41;4.93;;;1.50;;
56728;SDS011;42612;52.232;7.560;2024-03-25T11:40:08;5.97;;;2.17;;
56728;SDS011;42612;52.232;7.560;2024-03-25T11:42:38;5.13;;;1.40;;
56728;SDS011;42612;52.232;7.560;2024-03-25T11:45:10;6.93;;;1.67;;
56728;SDS011;42612;52.232;7.560;2024-03-25T11:47:44;5.78;;;1.50;;
56728;SDS011;42612;52.232;7.560;2024-03-25T11:50:13;4.55;;;2.13;;
56728;SDS011;42612;52.232;7.560;2024-03-25T11:52:42;3.03;;;1.23;;
56728;SDS011;42612;52.232;7.560;2024-03-25T11:55:08;2.88;;;1.10;;
56728;SDS011;42612;52.232;7.560;2024-03-25T11:57:37;3.75;;;1.35;;
56728;SDS011;42612;52.232;7.560;2024-03-25T12:00:04;5.03;;;1.13;;
56728;SDS011;42612;52.232;7.560;2024-03-25T12:02:31;3.28;;;1.10;;
56728;SDS011;42612;52.232;7.560;2024-03-25T12:04:57;3.65;;;1.15;;
56728;SDS011;42612;52.232;7.560;2024-03-25T12:07:23;2.42;;;1.10;;
56728;SDS011;42612;52.232;7.560;2024-03-25T12:09:49;7.55;;;1.60;;
56728;SDS011;42612;52.232;7.560;2024-03-25T12:12:33;1.90;;;1.20;;
56728;SDS011;42612;52.232;7.560;2024-03-25T12:15:04;7.68;;;2.05;;
56728;SDS011;42612;52.232;7.560;2024-03-25T12:17:31;4.38;;;1.65;;
56728;SDS011;42612;52.232;7.560;2024-03-25T12:20:05;4.22;;;1.40;;
56728;SDS011;42612;52.232;7.560;2024-03-25T12:22:42;4.40;;;1.35;;
56728;SDS011;42612;52.232;7.560;2024-03-25T12:25:09;6.00;;;1.50;;
56728;SDS011;42612;52.232;7.560;2024-03-25T12:27:37;3.83;;;1.52;;
56728;SDS011;42612;52.232;7.560;2024-03-25T12:30:07;7.90;;;2.00;;
56728;SDS011;42612;52.232;7.560;2024-03-25T12:35:15;2.65;;;1.55;;
56728;SDS011;42612;52.232;7.560;2024-03-25T12:37:43;5.57;;;1.73;;
56728;SDS011;42612;52.232;7.560;2024-03-25T12:40:11;4.38;;;1.60;;
56728;SDS011;42612;52.232;7.560;2024-03-25T12:42:54;15.35;;;1.75;;
56728;SDS011;42612;52.232;7.560;2024-03-25T12:45:20;4.93;;;1.45;;
56728;SDS011;42612;52.232;7.560;2024-03-25T12:47:48;2.80;;;1.20;;
56728;SDS011;42612;52.232;7.560;2024-03-25T12:50:14;4.70;;;2.28;;
56728;SDS011;42612;52.232;7.560;2024-03-25T12:52:40;3.00;;;1.33;;
56728;SDS011;42612;52.232;7.560;2024-03-25T12:55:06;3.35;;;1.77;;
56728;SDS011;42612;52.232;7.560;2024-03-25T12:57:32;5.32;;;1.40;;
56728;SDS011;42612;52.232;7.560;2024-03-25T12:59:58;2.85;;;1.10;;
56728;SDS011;42612;52.232;7.560;2024-03-25T13:02:24;4.20;;;1.13;;
56728;SDS011;42612;52.232;7.560;2024-03-25T13:04:49;4.82;;;1.10;;
56728;SDS011;42612;52.232;7.560;2024-03-25T13:07:15;4.13;;;1.35;;
56728;SDS011;42612;52.232;7.560;2024-03-25T13:09:41;2.58;;;1.20;;
56728;SDS011;42612;52.232;7.560;2024-03-25T13:12:07;3.63;;;1.20;;
56728;SDS011;42612;52.232;7.560;2024-03-25T13:14:32;3.00;;;1.00;;
56728;SDS011;42612;52.232;7.560;2024-03-25T13:16:58;2.67;;;1.05;;
56728;SDS011;42612;52.232;7.560;2024-03-25T13:19:24;2.67;;;1.42;;
56728;SDS011;42612;52.232;7.560;2024-03-25T13:21:53;6.95;;;1.40;;
56728;SDS011;42612;52.232;7.560;2024-03-25T13:24:20;5.53;;;1.58;;
56728;SDS011;42612;52.232;7.560;2024-03-25T13:26:46;5.90;;;1.70;;
56728;SDS011;42612;52.232;7.560;2024-03-25T13:29:12;3.22;;;1.40;;
56728;SDS011;42612;52.232;7.560;2024-03-25T13:31:37;3.97;;;1.35;;
56728;SDS011;42612;52.232;7.560;2024-03-25T13:34:03;3.50;;;1.40;;
56728;SDS011;42612;52.232;7.560;2024-03-25T13:36:29;2.50;;;1.30;;
56728;SDS011;42612;52.232;7.560;2024-03-25T13:38:56;4.28;;;1.65;;
56728;SDS011;42612;52.232;7.560;2024-03-25T13:41:22;5.68;;;1.80;;
56728;SDS011;42612;52.232;7.560;2024-03-25T13:43:49;2.28;;;1.20;;
56728;SDS011;42612;52.232;7.560;2024-03-25T13:46:14;4.57;;;1.20;;
56728;SDS011;42612;52.232;7.560;2024-03-25T13:48:40;6.18;;;1.17;;
56728;SDS011;42612;52.232;7.560;2024-03-25T13:51:06;5.10;;;1.50;;
56728;SDS011;42612;52.232;7.560;2024-03-25T13:53:32;2.17;;;1.23;;
56728;SDS011;42612;52.232;7.560;2024-03-25T13:55:57;2.17;;;1.25;;
56728;SDS011;42612;52.232;7.560;2024-03-25T13:58:24;5.65;;;1.17;;
56728;SDS011;42612;52.232;7.560;2024-03-25T14:00:50;5.95;;;1.40;;
56728;SDS011;42612;52.232;7.560;2024-03-25T14:03:16;3.03;;;1.63;;
56728;SDS011;42612;52.232;7.560;2024-03-25T14:05:42;7.88;;;1.83;;
56728;SDS011;42612;52.232;7.560;2024-03-25T14:08:09;2.65;;;1.50;;
56728;SDS011;42612;52.232;7.560;2024-03-25T14:10:35;6.47;;;1.42;;
56728;SDS011;42612;52.232;7.560;2024-03-25T14:13:01;4.00;;;1.30;;
56728;SDS011;42612;52.232;7.560;2024-03-25T14:15:28;2.30;;;1.35;;
56728;SDS011;42612;52.232;7.560;2024-03-25T14:17:54;4.70;;;1.65;;
56728;SDS011;42612;52.232;7.560;2024-03-25T14:20:20;5.38;;;1.65;;
56728;SDS011;42612;52.232;7.560;2024-03-25T14:22:46;4.43;;;1.40;;
56728;SDS011;42612;52.232;7.560;2024-03-25T14:25:12;3.50;;;1.60;;
56728;SDS011;42612;52.232;7.560;2024-03-25T14:27:41;3.22;;;1.60;;
56728;SDS011;42612;52.232;7.560;2024-03-25T14:30:07;4.50;;;1.50;;
56728;SDS011;42612;52.232;7.560;2024-03-25T14:32:35;6.15;;;1.73;;
56728;SDS011;42612;52.232;7.560;2024-03-25T14:37:31;1.63;;;1.00;;
56728;SDS011;42612;52.232;7.560;2024-03-25T14:39:58;6.05;;;1.70;;
56728;SDS011;42612;52.232;7.560;2024-03-25T14:42:24;3.50;;;1.45;;
56728;SDS011;42612;52.232;7.560;2024-03-25T14:44:50;2.53;;;1.33;;
56728;SDS011;42612;52.232;7.560;2024-03-25T14:47:16;4.38;;;1.40;;
56728;SDS011;42612;52.232;7.560;2024-03-25T14:49:41;6.20;;;1.58;;
56728;SDS011;42612;52.232;7.560;2024-03-25T14:52:07;5.05;;;1.77;;
56728;SDS011;42612;52.232;7.560;2024-03-25T14:54:33;3.08;;;1.42;;
56728;SDS011;42612;52.232;7.560;2024-03-25T14:57:00;4.30;;;1.70;;
56728;SDS011;42612;52.232;7.560;2024-03-25T14:59:29;2.53;;;1.15;;
56728;SDS011;42612;52.232;7.560;2024-03-25T15:02:01;3.28;;;1.75;;
56728;SDS011;42612;52.232;7.560;2024-03-25T15:04:28;4.00;;;1.52;;